Time;durP1;ratioP1;P1;durP2;ratioP2;P2;SDS_P1;SDS_P2;PMS_P1;PMS_P2;Temp;Humidity;BMP_temperature;BMP_pressure;BME280_temperature;BME280_humidity;BME280_pressure;Samples;Min_cycle;Max_cycle;Signal;HPM_P1;HPM_P2
2024/04/03 00:00:25;;;;;;;;;40.25;18.75;;;;;;;;10451037;28;43313;-60
2024/04/03 00:05:29;;;;;;;;;34.75;17.50;;;;;;;;10434110;28;43994;-61
2024/04/03 00:10:33;;;;;;;;;27.50;14.00;;;;;;;;10458885;28;43054;-61
2024/04/03 00:15:38;;;;;;;;;39.00;18.50;;;;;;;;10458124;28;43728;-59
2024/04/03 00:20:41;;;;;;;;;45.00;27.25;;;;;;;;10494617;28;50772;-59
2024/04/03 00:25:53;;;;;;;;;50.25;32.00;;;;;;;;10472470;28;43633;-60
2024/04/03 00:31:01;;;;;;;;;52.25;32.25;;;;;;;;10458712;28;44089;-60
2024/04/03 00:36:05;;;;;;;;;59.00;33.75;;;;;;;;10458652;28;43002;-61
2024/04/03 00:41:09;;;;;;;;;55.75;33.00;;;;;;;;10459037;28;44903;-62
2024/04/03 00:46:13;;;;;;;;;53.25;32.50;;;;;;;;10477590;27;43038;-56
2024/04/03 00:51:17;;;;;;;;;56.50;37.50;;;;;;;;10476177;28;43836;-56
2024/04/03 00:56:24;;;;;;;;;54.75;35.25;;;;;;;;10454526;28;43584;-59
2024/04/03 01:01:27;;;;;;;;;55.00;35.25;;;;;;;;10456790;28;43480;-61
2024/04/03 01:06:30;;;;;;;;;53.75;35.75;;;;;;;;10479984;27;43089;-61
2024/04/03 01:11:34;;;;;;;;;57.50;37.25;;;;;;;;10473818;28;43294;-61
2024/04/03 01:16:42;;;;;;;;;67.50;46.25;;;;;;;;10456588;28;43553;-62
2024/04/03 01:21:45;;;;;;;;;71.50;46.00;;;;;;;;10456669;28;43813;-61
2024/04/03 01:26:49;;;;;;;;;68.00;46.00;;;;;;;;10481709;27;43267;-60
2024/04/03 01:31:53;;;;;;;;;64.75;44.50;;;;;;;;10500215;28;44171;-61
2024/04/03 01:36:58;;;;;;;;;58.25;39.00;;;;;;;;10498885;28;43529;-62
2024/04/03 01:42:02;;;;;;;;;63.00;39.75;;;;;;;;10455848;28;43072;-60
2024/04/03 01:47:06;;;;;;;;;60.50;39.00;;;;;;;;10472334;28;43150;-60
2024/04/03 01:52:09;;;;;;;;;56.25;38.50;;;;;;;;10467213;28;43466;-59
2024/04/03 01:57:13;;;;;;;;;60.50;39.00;;;;;;;;10497324;27;42862;-59
2024/04/03 02:02:20;;;;;;;;;55.75;37.75;;;;;;;;10498758;27;44101;-62
2024/04/03 02:07:23;;;;;;;;;59.50;36.25;;;;;;;;10498607;28;42980;-61
2024/04/03 02:12:27;;;;;;;;;59.75;39.00;;;;;;;;10496935;28;43015;-61
2024/04/03 02:17:30;;;;;;;;;56.25;34.75;;;;;;;;10497895;27;42975;-61
2024/04/03 02:22:34;;;;;;;;;60.25;35.25;;;;;;;;10470776;28;42969;-61
2024/04/03 02:27:39;;;;;;;;;54.25;35.25;;;;;;;;10455819;28;42885;-61
2024/04/03 02:32:42;;;;;;;;;58.50;37.00;;;;;;;;10454370;28;42947;-62
2024/04/03 02:37:48;;;;;;;;;55.75;32.75;;;;;;;;10428947;28;42960;-61
2024/04/03 02:42:52;;;;;;;;;55.00;33.00;;;;;;;;10430946;28;43620;-62
2024/04/03 02:47:57;;;;;;;;;55.50;35.50;;;;;;;;10430679;28;42988;-61
2024/04/03 02:53:00;;;;;;;;;51.75;34.75;;;;;;;;10429724;28;44035;-62
2024/04/03 02:58:04;;;;;;;;;50.00;30.50;;;;;;;;10429603;28;43777;-61
2024/04/03 03:03:08;;;;;;;;;51.75;34.25;;;;;;;;10430147;28;43013;-61
2024/04/03 03:08:12;;;;;;;;;48.00;31.75;;;;;;;;10429259;28;43013;-62
2024/04/03 03:13:16;;;;;;;;;53.75;33.50;;;;;;;;10428255;28;43115;-61
2024/04/03 03:18:20;;;;;;;;;50.25;31.75;;;;;;;;10429303;28;42966;-61
2024/04/03 03:23:24;;;;;;;;;50.75;32.25;;;;;;;;10426223;28;43022;-61
2024/04/03 03:28:28;;;;;;;;;46.75;31.00;;;;;;;;10428930;28;44530;-61
2024/04/03 03:33:31;;;;;;;;;51.75;30.25;;;;;;;;10428186;28;43370;-61
2024/04/03 03:38:37;;;;;;;;;45.75;29.75;;;;;;;;10427626;28;42999;-61
2024/04/03 03:43:40;;;;;;;;;44.50;28.00;;;;;;;;10432135;28;43864;-61
2024/04/03 03:54:06;;;;;;;;;46.50;29.50;;;;;;;;10394238;28;42993;-60
2024/04/03 03:59:09;;;;;;;;;45.75;28.25;;;;;;;;10392915;28;43852;-59
2024/04/03 04:04:13;;;;;;;;;51.25;34.25;;;;;;;;10394665;28;43065;-58
2024/04/03 04:09:16;;;;;;;;;55.75;38.25;;;;;;;;10393059;28;43199;-60
2024/04/03 04:14:21;;;;;;;;;54.50;35.25;;;;;;;;10375476;28;43017;-59
2024/04/03 04:19:24;;;;;;;;;59.00;39.00;;;;;;;;10393418;28;43497;-60
2024/04/03 04:24:28;;;;;;;;;57.50;37.00;;;;;;;;10390979;28;42986;-61
2024/04/03 04:29:31;;;;;;;;;54.75;35.00;;;;;;;;10393667;28;43399;-61
2024/04/03 04:34:38;;;;;;;;;52.00;32.75;;;;;;;;10401518;28;43341;-61
2024/04/03 04:39:44;;;;;;;;;54.75;34.75;;;;;;;;10459566;28;42983;-60
2024/04/03 04:44:48;;;;;;;;;53.00;32.75;;;;;;;;10469743;28;43132;-59
2024/04/03 04:49:51;;;;;;;;;50.50;33.50;;;;;;;;10419089;28;43046;-60
2024/04/03 04:54:56;;;;;;;;;49.50;30.25;;;;;;;;10426762;28;43639;-60
2024/04/03 04:59:59;;;;;;;;;51.00;31.25;;;;;;;;10453790;28;44766;-61
2024/04/03 05:05:03;;;;;;;;;50.75;32.00;;;;;;;;10441318;28;43462;-60
2024/04/03 05:10:07;;;;;;;;;48.00;30.25;;;;;;;;10460073;28;44141;-61
2024/04/03 05:15:12;;;;;;;;;51.25;31.00;;;;;;;;10456259;28;43009;-61
2024/04/03 05:20:15;;;;;;;;;46.50;30.50;;;;;;;;10461029;28;43060;-61
2024/04/03 05:25:19;;;;;;;;;43.50;28.00;;;;;;;;10468611;28;42922;-60
2024/04/03 05:30:24;;;;;;;;;49.00;29.00;;;;;;;;10459152;28;44209;-60
2024/04/03 05:35:28;;;;;;;;;49.50;29.75;;;;;;;;10456688;28;43552;-60
2024/04/03 05:40:34;;;;;;;;;48.00;31.75;;;;;;;;10460109;28;42983;-61
2024/04/03 05:45:37;;;;;;;;;44.50;30.75;;;;;;;;10461348;28;42993;-61
2024/04/03 05:50:42;;;;;;;;;57.25;39.50;;;;;;;;10469259;28;43003;-60
2024/04/03 05:55:52;;;;;;;;;53.00;33.50;;;;;;;;10463879;28;43974;-59
2024/04/03 06:00:56;;;;;;;;;56.75;36.75;;;;;;;;10453572;28;44480;-59
2024/04/03 06:05:59;;;;;;;;;56.00;38.50;;;;;;;;10420586;28;44228;-61
2024/04/03 06:11:03;;;;;;;;;60.25;42.00;;;;;;;;10459554;28;43033;-57
2024/04/03 06:16:06;;;;;;;;;61.75;42.00;;;;;;;;10454110;28;43052;-59
2024/04/03 06:21:11;;;;;;;;;57.50;40.00;;;;;;;;10445729;28;45186;-63
2024/04/03 06:26:15;;;;;;;;;62.75;41.25;;;;;;;;10455177;28;42988;-57
2024/04/03 06:31:19;;;;;;;;;64.00;44.50;;;;;;;;10456136;28;43048;-59
2024/04/03 06:36:24;;;;;;;;;56.00;38.00;;;;;;;;10454875;28;43239;-59
2024/04/03 06:41:27;;;;;;;;;58.75;39.50;;;;;;;;10400084;28;44178;-58
2024/04/03 06:46:31;;;;;;;;;48.75;34.25;;;;;;;;10448000;28;43561;-58
2024/04/03 06:51:34;;;;;;;;;55.50;36.50;;;;;;;;10422546;28;44353;-59
2024/04/03 06:56:38;;;;;;;;;53.50;35.25;;;;;;;;10446489;28;44459;-58
2024/04/03 07:01:41;;;;;;;;;58.50;38.00;;;;;;;;10416082;28;43612;-59
2024/04/03 07:06:44;;;;;;;;;57.25;35.00;;;;;;;;10443746;28;43294;-59
2024/04/03 07:11:48;;;;;;;;;54.75;33.75;;;;;;;;10416672;28;43314;-59
2024/04/03 07:16:52;;;;;;;;;55.50;33.75;;;;;;;;10415706;28;42991;-59
2024/04/03 07:21:56;;;;;;;;;51.50;32.75;;;;;;;;10424743;28;43434;-59
2024/04/03 07:26:59;;;;;;;;;51.00;32.50;;;;;;;;10443879;28;42985;-59
2024/04/03 07:32:03;;;;;;;;;52.25;34.00;;;;;;;;10415532;28;43049;-59
2024/04/03 07:37:08;;;;;;;;;53.50;35.50;;;;;;;;10427564;28;42996;-59
2024/04/03 07:42:12;;;;;;;;;51.00;33.75;;;;;;;;10456453;28;43056;-59
2024/04/03 07:47:16;;;;;;;;;51.25;34.00;;;;;;;;10450497;28;43991;-59
2024/04/03 07:52:20;;;;;;;;;52.00;34.00;;;;;;;;10450775;28;43002;-59
2024/04/03 07:57:24;;;;;;;;;54.50;35.00;;;;;;;;10451163;28;43046;-59
2024/04/03 08:02:27;;;;;;;;;54.00;35.75;;;;;;;;10450102;28;42981;-59
2024/04/03 08:07:30;;;;;;;;;49.50;34.00;;;;;;;;10450292;28;43551;-59
2024/04/03 08:12:34;;;;;;;;;54.00;33.75;;;;;;;;10454056;28;43020;-59
2024/04/03 08:17:38;;;;;;;;;52.00;33.00;;;;;;;;10450390;28;43184;-59
2024/04/03 08:22:42;;;;;;;;;52.25;34.50;;;;;;;;10434127;28;43029;-59
2024/04/03 08:27:46;;;;;;;;;57.25;37.75;;;;;;;;10429815;28;43311;-59
2024/04/03 08:32:50;;;;;;;;;56.25;33.50;;;;;;;;10446227;27;44082;-59
2024/04/03 08:37:54;;;;;;;;;51.75;35.50;;;;;;;;10447083;28;43681;-61
2024/04/03 08:42:57;;;;;;;;;56.50;37.50;;;;;;;;10449508;28;43063;-60
2024/04/03 08:48:02;;;;;;;;;58.75;40.75;;;;;;;;10455149;28;43888;-62
2024/04/03 08:53:05;;;;;;;;;48.50;33.75;;;;;;;;10450763;28;42955;-63
2024/04/03 08:58:09;;;;;;;;;52.25;35.50;;;;;;;;10459182;28;42976;-63
2024/04/03 09:03:13;;;;;;;;;51.75;35.75;;;;;;;;10450982;28;43010;-63
2024/04/03 09:08:17;;;;;;;;;55.00;37.25;;;;;;;;10454127;28;42973;-63
2024/04/03 09:13:21;;;;;;;;;52.50;34.50;;;;;;;;10436115;28;44232;-63
2024/04/03 09:18:24;;;;;;;;;49.25;34.00;;;;;;;;10439480;28;43008;-63
2024/04/03 09:23:30;;;;;;;;;56.50;37.00;;;;;;;;10442510;28;43487;-62
2024/04/03 09:28:34;;;;;;;;;51.75;32.00;;;;;;;;10460213;28;43207;-62
2024/04/03 09:33:39;;;;;;;;;50.00;31.50;;;;;;;;10435811;28;43052;-62
2024/04/03 09:38:44;;;;;;;;;54.25;33.75;;;;;;;;10380162;28;43145;-62
2024/04/03 09:43:50;;;;;;;;;48.75;33.75;;;;;;;;10385862;28;43582;-63
2024/04/03 09:48:54;;;;;;;;;54.75;33.75;;;;;;;;10386989;28;44470;-63
2024/04/03 09:53:57;;;;;;;;;50.00;30.50;;;;;;;;10384043;28;43672;-62
2024/04/03 09:59:06;;;;;;;;;51.25;29.75;;;;;;;;10382796;28;43681;-63
2024/04/03 10:04:09;;;;;;;;;52.25;32.75;;;;;;;;10384371;28;42968;-60
2024/04/03 10:09:16;;;;;;;;;51.25;32.00;;;;;;;;10386779;28;43869;-61
2024/04/03 10:14:29;;;;;;;;;47.25;31.75;;;;;;;;10415295;28;44463;-61
2024/04/03 10:19:34;;;;;;;;;52.50;31.50;;;;;;;;10383169;28;43092;-62
2024/04/03 10:24:38;;;;;;;;;51.50;32.00;;;;;;;;10384564;28;43652;-61
2024/04/03 10:29:42;;;;;;;;;48.50;32.75;;;;;;;;10384781;28;43797;-61
2024/04/03 10:34:45;;;;;;;;;53.75;31.25;;;;;;;;10393775;28;44560;-61
2024/04/03 10:39:51;;;;;;;;;46.75;29.50;;;;;;;;10420714;28;43447;-62
2024/04/03 10:44:54;;;;;;;;;50.50;32.00;;;;;;;;10411013;28;43575;-61
2024/04/03 10:49:58;;;;;;;;;48.75;31.50;;;;;;;;10410902;28;43706;-62
2024/04/03 10:55:02;;;;;;;;;48.50;29.75;;;;;;;;10448973;28;44624;-61
2024/04/03 11:00:07;;;;;;;;;52.00;31.75;;;;;;;;10452492;28;43126;-62
2024/04/03 11:05:11;;;;;;;;;47.75;32.00;;;;;;;;10422279;28;43396;-64
2024/04/03 11:10:15;;;;;;;;;48.50;31.00;;;;;;;;10440332;28;50255;-61
2024/04/03 11:15:22;;;;;;;;;53.75;33.25;;;;;;;;10416827;28;49506;-60
2024/04/03 11:20:26;;;;;;;;;51.00;33.25;;;;;;;;10450535;28;48539;-65
2024/04/03 11:25:31;;;;;;;;;50.50;33.25;;;;;;;;10455370;28;48376;-65
2024/04/03 11:30:39;;;;;;;;;51.00;33.75;;;;;;;;10450842;28;43016;-62
2024/04/03 11:35:42;;;;;;;;;51.75;34.25;;;;;;;;10468971;28;43769;-62
2024/04/03 11:40:46;;;;;;;;;48.75;30.75;;;;;;;;10452219;28;43926;-59
2024/04/03 11:45:50;;;;;;;;;55.00;35.00;;;;;;;;10445407;28;43374;-62
2024/04/03 11:50:54;;;;;;;;;59.50;37.25;;;;;;;;10450934;28;42985;-60
2024/04/03 11:55:58;;;;;;;;;56.50;36.50;;;;;;;;10450497;28;42935;-62
2024/04/03 12:01:01;;;;;;;;;54.75;35.50;;;;;;;;10450029;28;45112;-62
2024/04/03 12:06:06;;;;;;;;;52.75;34.00;;;;;;;;10461164;28;42929;-61
2024/04/03 12:11:10;;;;;;;;;53.25;34.25;;;;;;;;10457791;28;43262;-62
2024/04/03 12:16:19;;;;;;;;;51.75;35.25;;;;;;;;10460781;28;43857;-61
2024/04/03 12:21:23;;;;;;;;;52.75;34.00;;;;;;;;10470937;28;43021;-63
2024/04/03 12:26:26;;;;;;;;;54.50;34.75;;;;;;;;10457913;27;43715;-61
2024/04/03 12:31:30;;;;;;;;;53.00;36.75;;;;;;;;10451498;28;43044;-60
2024/04/03 12:36:35;;;;;;;;;55.50;35.00;;;;;;;;10428714;28;43680;-63
2024/04/03 12:41:38;;;;;;;;;57.75;36.50;;;;;;;;10456255;27;43653;-62
2024/04/03 12:46:42;;;;;;;;;53.75;36.25;;;;;;;;10430066;28;43782;-62
2024/04/03 12:51:45;;;;;;;;;55.75;33.75;;;;;;;;10424852;28;43080;-59
2024/04/03 12:56:50;;;;;;;;;54.00;32.50;;;;;;;;10449389;28;43647;-61
2024/04/03 13:01:53;;;;;;;;;56.25;35.00;;;;;;;;10457222;28;42923;-61
2024/04/03 13:06:57;;;;;;;;;57.00;37.25;;;;;;;;10455459;28;42958;-61
2024/04/03 13:12:01;;;;;;;;;54.25;36.50;;;;;;;;10456648;28;43032;-60
2024/04/03 13:17:04;;;;;;;;;53.50;35.75;;;;;;;;10456849;28;43006;-61
2024/04/03 13:22:14;;;;;;;;;65.50;38.50;;;;;;;;10451820;28;43107;-62
2024/04/03 13:27:18;;;;;;;;;56.25;35.75;;;;;;;;10455751;28;43116;-62
2024/04/03 13:32:23;;;;;;;;;62.50;39.50;;;;;;;;10456667;28;43572;-62
2024/04/03 13:37:27;;;;;;;;;54.50;34.00;;;;;;;;10456852;28;43441;-62
2024/04/03 13:42:31;;;;;;;;;61.75;35.50;;;;;;;;10455465;28;42996;-62
2024/04/03 13:47:35;;;;;;;;;56.25;36.25;;;;;;;;10456873;28;43533;-62
2024/04/03 13:52:40;;;;;;;;;60.25;34.75;;;;;;;;10455163;28;43793;-62
2024/04/03 13:57:45;;;;;;;;;54.50;35.50;;;;;;;;10455781;28;43600;-62
2024/04/03 14:02:49;;;;;;;;;58.00;35.25;;;;;;;;10441782;28;43122;-62
2024/04/03 14:07:52;;;;;;;;;56.75;34.75;;;;;;;;10436997;28;43744;-62
2024/04/03 14:12:56;;;;;;;;;55.25;35.00;;;;;;;;10442035;28;43045;-62
2024/04/03 14:18:00;;;;;;;;;57.25;35.50;;;;;;;;10443686;28;44039;-63
2024/04/03 14:23:03;;;;;;;;;57.00;37.25;;;;;;;;10449750;28;42943;-63
2024/04/03 14:28:14;;;;;;;;;56.00;32.25;;;;;;;;10453466;28;42996;-63
2024/04/03 14:33:17;;;;;;;;;54.50;35.00;;;;;;;;10429964;28;43073;-63
2024/04/03 14:38:23;;;;;;;;;52.50;35.25;;;;;;;;10414067;28;43246;-62
2024/04/03 14:43:26;;;;;;;;;53.00;34.75;;;;;;;;10429292;28;43632;-63
2024/04/03 14:48:29;;;;;;;;;56.25;35.00;;;;;;;;10429462;28;43013;-62
2024/04/03 14:53:33;;;;;;;;;57.75;40.75;;;;;;;;10428284;28;43262;-63
2024/04/03 14:58:37;;;;;;;;;55.50;36.25;;;;;;;;10423486;28;42996;-62
2024/04/03 15:03:40;;;;;;;;;49.25;33.75;;;;;;;;10428982;28;43810;-62
2024/04/03 15:08:44;;;;;;;;;56.50;36.25;;;;;;;;10426097;28;43765;-62
2024/04/03 15:13:47;;;;;;;;;56.50;36.00;;;;;;;;10428035;28;43364;-62
2024/04/03 15:18:51;;;;;;;;;62.00;40.50;;;;;;;;10428418;28;43105;-62
2024/04/03 15:23:55;;;;;;;;;55.75;37.75;;;;;;;;10427395;28;44055;-62
2024/04/03 15:28:59;;;;;;;;;54.25;35.75;;;;;;;;10429301;28;44083;-62
2024/04/03 15:34:04;;;;;;;;;56.50;38.25;;;;;;;;10426838;28;43034;-61
2024/04/03 15:39:09;;;;;;;;;60.50;39.00;;;;;;;;10389700;28;43814;-61
2024/04/03 15:44:15;;;;;;;;;52.75;36.50;;;;;;;;10386499;28;43310;-61
2024/04/03 15:49:19;;;;;;;;;56.50;37.00;;;;;;;;10384612;28;44089;-61
2024/04/03 15:54:22;;;;;;;;;56.00;36.25;;;;;;;;10385732;28;42950;-61
2024/04/03 15:59:25;;;;;;;;;57.00;36.75;;;;;;;;10392177;28;43004;-61
2024/04/03 16:04:29;;;;;;;;;56.25;37.75;;;;;;;;10386473;28;43587;-62
2024/04/03 16:09:33;;;;;;;;;56.25;38.00;;;;;;;;10385861;28;43659;-61
2024/04/03 16:14:36;;;;;;;;;61.00;40.00;;;;;;;;10385191;28;43598;-61
2024/04/03 16:19:40;;;;;;;;;55.50;37.25;;;;;;;;10385939;28;43349;-61
2024/04/03 16:24:43;;;;;;;;;57.50;39.50;;;;;;;;10385447;28;43181;-62
2024/04/03 16:29:49;;;;;;;;;57.25;40.00;;;;;;;;10394111;28;43035;-61
2024/04/03 16:34:53;;;;;;;;;60.00;39.50;;;;;;;;10387874;28;43443;-61
2024/04/03 16:39:57;;;;;;;;;57.25;38.50;;;;;;;;10450484;28;43107;-61
2024/04/03 16:45:00;;;;;;;;;61.50;38.50;;;;;;;;10434863;28;43622;-62
2024/04/03 16:50:05;;;;;;;;;57.75;38.25;;;;;;;;10451438;28;43049;-62
2024/04/03 16:55:09;;;;;;;;;56.50;36.75;;;;;;;;10410336;28;43064;-62
2024/04/03 17:00:13;;;;;;;;;57.75;40.00;;;;;;;;10455082;28;43138;-63
2024/04/03 17:05:17;;;;;;;;;57.75;40.75;;;;;;;;10419063;28;42985;-62
2024/04/03 17:10:20;;;;;;;;;57.75;40.00;;;;;;;;10463230;28;42980;-63
2024/04/03 17:15:24;;;;;;;;;59.75;40.75;;;;;;;;10445508;28;44001;-63
2024/04/03 17:20:27;;;;;;;;;62.00;43.00;;;;;;;;10459656;28;43280;-63
2024/04/03 17:25:31;;;;;;;;;56.75;39.00;;;;;;;;10448325;28;44379;-63
2024/04/03 17:30:35;;;;;;;;;53.75;39.25;;;;;;;;10459203;28;43273;-63
2024/04/03 17:35:40;;;;;;;;;57.25;39.00;;;;;;;;10458051;28;42998;-62
2024/04/03 17:40:44;;;;;;;;;62.75;42.00;;;;;;;;10458934;28;43017;-62
2024/04/03 17:45:49;;;;;;;;;59.75;40.00;;;;;;;;10447411;28;48346;-63
2024/04/03 17:50:53;;;;;;;;;66.25;42.50;;;;;;;;10455614;28;44079;-63
2024/04/03 17:55:57;;;;;;;;;57.00;39.00;;;;;;;;10458933;28;42997;-63
2024/04/03 18:01:01;;;;;;;;;60.25;39.75;;;;;;;;10452876;28;43348;-63
2024/04/03 18:06:04;;;;;;;;;63.00;42.25;;;;;;;;10455159;28;43681;-63
2024/04/03 18:11:11;;;;;;;;;60.25;42.50;;;;;;;;10460143;28;42975;-63
2024/04/03 18:16:15;;;;;;;;;57.00;39.50;;;;;;;;10447207;28;43013;-63
2024/04/03 18:21:19;;;;;;;;;57.00;41.00;;;;;;;;10457408;28;43300;-63
2024/04/03 18:26:24;;;;;;;;;58.00;41.25;;;;;;;;10456245;28;43628;-63
2024/04/03 18:31:27;;;;;;;;;60.75;41.00;;;;;;;;10451570;28;43656;-62
2024/04/03 18:36:32;;;;;;;;;60.25;43.00;;;;;;;;10423635;28;43657;-62
2024/04/03 18:41:36;;;;;;;;;58.00;42.00;;;;;;;;10444848;28;43325;-62
2024/04/03 18:46:41;;;;;;;;;57.75;38.50;;;;;;;;10426498;28;43042;-62
2024/04/03 18:51:44;;;;;;;;;64.00;41.00;;;;;;;;10453706;28;43224;-62
2024/04/03 18:56:47;;;;;;;;;60.25;41.25;;;;;;;;10453916;28;43480;-62
2024/04/03 19:01:52;;;;;;;;;60.00;39.25;;;;;;;;10453919;28;43681;-62
2024/04/03 19:06:56;;;;;;;;;58.00;41.75;;;;;;;;10438260;28;44541;-62
2024/04/03 19:12:00;;;;;;;;;57.00;41.50;;;;;;;;10451945;28;43712;-62
2024/04/03 19:17:03;;;;;;;;;62.50;40.50;;;;;;;;10451365;28;43910;-62
2024/04/03 19:22:08;;;;;;;;;61.00;43.25;;;;;;;;10453329;27;42985;-62
2024/04/03 19:27:12;;;;;;;;;59.75;42.25;;;;;;;;10450442;28;44026;-62
2024/04/03 19:32:24;;;;;;;;;60.00;40.75;;;;;;;;10452568;28;43673;-62
2024/04/03 19:37:27;;;;;;;;;61.00;40.25;;;;;;;;10430110;28;43691;-62
2024/04/03 19:42:33;;;;;;;;;58.00;40.25;;;;;;;;10452056;28;43497;-63
2024/04/03 19:47:37;;;;;;;;;57.75;40.00;;;;;;;;10452043;28;42997;-62
2024/04/03 19:52:41;;;;;;;;;65.00;43.75;;;;;;;;10451063;28;42987;-62
2024/04/03 19:57:45;;;;;;;;;61.00;42.50;;;;;;;;10451664;28;43028;-62
2024/04/03 20:02:49;;;;;;;;;58.25;42.00;;;;;;;;10452667;28;42987;-62
2024/04/03 20:07:53;;;;;;;;;61.25;43.25;;;;;;;;10459424;28;42886;-62
2024/04/03 20:12:57;;;;;;;;;62.25;41.00;;;;;;;;10459300;28;42959;-62
2024/04/03 20:18:01;;;;;;;;;65.50;41.75;;;;;;;;10455266;28;43760;-62
2024/04/03 20:23:05;;;;;;;;;59.00;40.00;;;;;;;;10450992;28;43326;-62
2024/04/03 20:28:09;;;;;;;;;58.00;40.50;;;;;;;;10458475;28;42942;-62
2024/04/03 20:33:13;;;;;;;;;58.00;39.75;;;;;;;;10462869;28;44053;-62
2024/04/03 20:38:17;;;;;;;;;58.25;42.25;;;;;;;;10409348;28;43008;-61
2024/04/03 20:43:20;;;;;;;;;61.25;40.75;;;;;;;;10412900;28;43757;-59
2024/04/03 20:48:23;;;;;;;;;60.25;42.50;;;;;;;;10410092;28;43229;-60
2024/04/03 20:53:27;;;;;;;;;55.00;36.00;;;;;;;;10406601;28;43479;-59
2024/04/03 20:58:30;;;;;;;;;49.75;33.00;;;;;;;;10399426;28;42957;-60
2024/04/03 21:03:33;;;;;;;;;50.50;33.25;;;;;;;;10414916;28;43072;-59
2024/04/03 21:08:37;;;;;;;;;49.50;32.25;;;;;;;;10407533;28;42915;-61
2024/04/03 21:13:43;;;;;;;;;49.50;33.50;;;;;;;;10401062;28;43066;-62
2024/04/03 21:18:47;;;;;;;;;52.75;35.75;;;;;;;;10429710;28;42985;-62
2024/04/03 21:23:51;;;;;;;;;48.50;34.50;;;;;;;;10403742;28;43674;-61
2024/04/03 21:28:54;;;;;;;;;53.00;34.50;;;;;;;;10395723;28;43282;-59
2024/04/03 21:34:00;;;;;;;;;52.00;34.50;;;;;;;;10420818;28;43002;-61
2024/04/03 21:39:04;;;;;;;;;52.50;35.00;;;;;;;;10444829;28;43491;-62
2024/04/03 21:44:07;;;;;;;;;52.00;34.75;;;;;;;;10438075;28;43058;-61
2024/04/03 21:49:10;;;;;;;;;49.00;32.50;;;;;;;;10469313;28;43742;-58
2024/04/03 21:54:14;;;;;;;;;55.50;35.75;;;;;;;;10449518;28;42983;-60
2024/04/03 21:59:17;;;;;;;;;49.00;34.25;;;;;;;;10437832;28;44034;-61
2024/04/03 22:04:21;;;;;;;;;53.00;35.75;;;;;;;;10439739;28;42909;-61
2024/04/03 22:09:25;;;;;;;;;49.25;34.50;;;;;;;;10438153;28;43001;-60
2024/04/03 22:14:28;;;;;;;;;50.25;33.25;;;;;;;;10437596;28;43001;-61
2024/04/03 22:19:32;;;;;;;;;53.75;36.75;;;;;;;;10449991;28;43498;-60
2024/04/03 22:24:36;;;;;;;;;56.75;37.75;;;;;;;;10449838;28;42942;-60
2024/04/03 22:29:39;;;;;;;;;51.25;35.50;;;;;;;;10419904;28;43734;-60
2024/04/03 22:34:44;;;;;;;;;53.00;36.50;;;;;;;;10432300;28;43155;-60
2024/04/03 22:39:49;;;;;;;;;55.50;39.00;;;;;;;;10390358;28;43767;-60
2024/04/03 22:44:52;;;;;;;;;58.00;35.50;;;;;;;;10388080;28;43708;-61
2024/04/03 22:49:55;;;;;;;;;56.25;37.75;;;;;;;;10395575;28;43483;-61
2024/04/03 22:55:00;;;;;;;;;57.00;38.00;;;;;;;;10387498;28;43131;-61
2024/04/03 23:00:07;;;;;;;;;53.50;35.50;;;;;;;;10385636;28;43766;-61
2024/04/03 23:05:11;;;;;;;;;59.00;39.75;;;;;;;;10387253;28;44473;-61
2024/04/03 23:10:15;;;;;;;;;57.75;36.75;;;;;;;;10387712;28;43673;-60
2024/04/03 23:15:20;;;;;;;;;54.00;38.50;;;;;;;;10388554;28;42954;-61
2024/04/03 23:20:23;;;;;;;;;56.50;38.25;;;;;;;;10427641;28;42987;-61
2024/04/03 23:25:28;;;;;;;;;57.75;37.75;;;;;;;;10390495;28;43007;-61
2024/04/03 23:30:32;;;;;;;;;58.00;41.25;;;;;;;;10386101;28;43185;-61
2024/04/03 23:35:36;;;;;;;;;56.50;36.00;;;;;;;;10392280;28;44976;-59
2024/04/03 23:40:39;;;;;;;;;58.75;38.75;;;;;;;;10456882;28;43601;-62
2024/04/03 23:45:46;;;;;;;;;53.50;37.50;;;;;;;;10420652;28;44037;-61
2024/04/03 23:50:55;;;;;;;;;54.75;39.00;;;;;;;;10448316;28;48453;-62
2024/04/03 23:55:59;;;;;;;;;56.00;37.00;;;;;;;;10450706;28;43057;-61
